createdAt,value
2019-02-08T00:01:22.783Z,2.42
2019-02-08T00:03:51.955Z,2.47
2019-02-08T00:06:21.219Z,2.33
2019-02-08T00:08:50.402Z,2.10
2019-02-08T00:11:19.605Z,1.40
2019-02-08T00:13:48.880Z,2.30
2019-02-08T00:16:18.091Z,2.35
2019-02-08T00:18:47.700Z,2.30
2019-02-08T00:21:16.939Z,3.00
2019-02-08T00:23:46.081Z,2.35
2019-02-08T00:26:15.209Z,2.65
2019-02-08T00:28:44.478Z,2.05
2019-02-08T00:31:13.622Z,2.10
2019-02-08T00:33:43.147Z,3.15
2019-02-08T00:36:12.347Z,2.42
2019-02-08T00:38:41.492Z,2.12
2019-02-08T00:41:10.595Z,2.45
2019-02-08T00:43:39.797Z,2.27
2019-02-08T00:46:09.001Z,2.45
2019-02-08T00:48:38.250Z,2.12
2019-02-08T00:51:07.401Z,2.50
2019-02-08T00:53:36.563Z,2.10
2019-02-08T00:56:06.265Z,2.37
2019-02-08T00:58:35.453Z,2.33
2019-02-08T01:01:05.261Z,2.50
2019-02-08T01:03:34.427Z,1.57
2019-02-08T01:06:04.070Z,2.35
2019-02-08T01:08:33.219Z,2.20
2019-02-08T01:11:02.530Z,2.45
2019-02-08T01:13:31.783Z,2.35
2019-02-08T01:16:01.178Z,1.67
2019-02-08T01:18:30.360Z,2.40
2019-02-08T01:20:59.562Z,2.77
2019-02-08T01:23:29.620Z,1.95
2019-02-08T01:25:58.884Z,2.87
2019-02-08T01:28:28.082Z,2.83
2019-02-08T01:30:57.321Z,2.22
2019-02-08T01:33:26.549Z,2.60
2019-02-08T01:35:55.705Z,2.80
2019-02-08T01:38:24.897Z,3.17
2019-02-08T01:40:54.035Z,2.02
2019-02-08T01:43:23.151Z,2.25
2019-02-08T01:45:52.335Z,2.25
2019-02-08T01:48:21.531Z,2.17
2019-02-08T01:50:50.731Z,1.77
2019-02-08T01:53:19.873Z,2.05
2019-02-08T01:55:48.992Z,1.98
2019-02-08T01:58:18.287Z,2.17
2019-02-08T02:00:47.453Z,1.85
2019-02-08T02:03:16.775Z,1.92
2019-02-08T02:05:46.257Z,1.95
2019-02-08T02:08:15.377Z,1.72
2019-02-08T02:10:45.351Z,2.22
2019-02-08T02:13:14.657Z,2.15
2019-02-08T02:15:43.876Z,1.72
2019-02-08T02:18:13.695Z,1.60
2019-02-08T02:20:43.373Z,2.02
2019-02-08T02:23:14.843Z,1.80
2019-02-08T02:25:44.112Z,2.15
2019-02-08T02:28:13.654Z,2.35
2019-02-08T02:30:42.873Z,1.90
2019-02-08T02:33:12.879Z,2.33
2019-02-08T02:35:42.107Z,1.60
2019-02-08T02:38:11.335Z,1.72
2019-02-08T02:40:40.649Z,2.20
2019-02-08T02:43:10.116Z,1.70
2019-02-08T02:45:40.030Z,2.10
2019-02-08T02:48:11.533Z,1.70
2019-02-08T02:50:40.692Z,2.00
2019-02-08T02:53:10.415Z,2.60
2019-02-08T02:55:39.554Z,2.80
2019-02-08T02:58:08.646Z,2.02
2019-02-08T03:00:40.635Z,2.83
2019-02-08T03:03:09.858Z,2.42
2019-02-08T03:05:39.077Z,2.67
2019-02-08T03:08:08.763Z,2.62
2019-02-08T03:10:37.925Z,2.35
2019-02-08T03:13:07.606Z,2.52
2019-02-08T03:15:36.848Z,2.45
2019-02-08T03:18:07.027Z,2.33
2019-02-08T03:20:36.250Z,2.72
2019-02-08T03:23:05.765Z,2.65
2019-02-08T03:25:35.174Z,2.83
2019-02-08T03:28:05.832Z,3.02
2019-02-08T03:30:38.952Z,2.10
2019-02-08T03:33:08.099Z,3.17
2019-02-08T03:35:37.267Z,2.58
2019-02-08T03:38:06.627Z,2.30
2019-02-08T03:40:35.751Z,2.00
2019-02-08T03:43:05.060Z,3.00
2019-02-08T03:45:38.255Z,2.60
2019-02-08T03:48:07.646Z,2.35
2019-02-08T03:50:36.782Z,2.72
2019-02-08T03:53:06.756Z,2.47
2019-02-08T03:55:36.069Z,2.75
2019-02-08T03:58:05.605Z,2.47
2019-02-08T04:00:40.115Z,3.62
2019-02-08T04:03:09.285Z,2.65
2019-02-08T04:05:38.677Z,2.90
2019-02-08T04:08:08.033Z,2.50
2019-02-08T04:10:37.183Z,3.10
2019-02-08T04:13:06.832Z,4.05
2019-02-08T04:15:36.056Z,2.75
2019-02-08T04:18:05.311Z,2.55
2019-02-08T04:20:35.247Z,2.87
2019-02-08T04:23:04.615Z,3.10
2019-02-08T04:25:33.770Z,2.65
2019-02-08T04:28:03.093Z,3.33
2019-02-08T04:30:32.746Z,2.50
2019-02-08T04:33:02.010Z,3.30
2019-02-08T04:35:31.344Z,2.98
2019-02-08T04:38:00.467Z,3.17
2019-02-08T04:40:29.717Z,3.70
2019-02-08T04:42:58.957Z,3.52
2019-02-08T04:45:28.258Z,3.45
2019-02-08T04:47:57.427Z,3.72
2019-02-08T04:50:26.629Z,3.10
2019-02-08T04:52:56.531Z,3.10
2019-02-08T04:55:26.008Z,3.10
2019-02-08T04:57:55.339Z,3.90
2019-02-08T05:00:32.869Z,3.47
2019-02-08T05:03:02.016Z,3.72
2019-02-08T05:05:31.311Z,3.60
2019-02-08T05:08:00.566Z,2.92
2019-02-08T05:10:30.589Z,3.22
2019-02-08T05:13:00.238Z,3.52
2019-02-08T05:15:29.467Z,3.30
2019-02-08T05:17:59.407Z,3.47
2019-02-08T05:20:29.241Z,3.72
2019-02-08T05:22:58.395Z,3.10
2019-02-08T05:25:27.682Z,3.50
2019-02-08T05:27:56.884Z,3.30
2019-02-08T05:30:31.281Z,3.95
2019-02-08T05:33:00.755Z,3.70
2019-02-08T05:35:29.910Z,4.00
2019-02-08T05:37:59.387Z,3.15
2019-02-08T05:40:28.693Z,3.05
2019-02-08T05:42:57.858Z,3.72
2019-02-08T05:45:27.684Z,3.47
2019-02-08T05:47:56.810Z,3.47
2019-02-08T05:50:26.754Z,3.15
2019-02-08T05:52:56.052Z,3.67
2019-02-08T05:55:27.996Z,4.45
2019-02-08T05:57:57.200Z,3.90
2019-02-08T06:00:34.709Z,4.00
2019-02-08T06:03:04.584Z,3.95
2019-02-08T06:05:33.864Z,5.10
2019-02-08T06:08:03.320Z,5.40
2019-02-08T06:10:32.591Z,5.40
2019-02-08T06:13:03.978Z,5.42
2019-02-08T06:15:33.259Z,5.33
2019-02-08T06:18:02.422Z,5.20
2019-02-08T06:20:31.774Z,5.05
2019-02-08T06:23:01.308Z,5.37
2019-02-08T06:25:30.529Z,6.05
2019-02-08T06:27:59.738Z,5.80
2019-02-08T06:30:28.974Z,5.28
2019-02-08T06:32:58.259Z,4.80
2019-02-08T06:35:27.787Z,4.45
2019-02-08T06:37:57.017Z,5.50
2019-02-08T06:40:27.027Z,3.90
2019-02-08T06:42:56.310Z,4.85
2019-02-08T06:45:27.340Z,5.35
2019-02-08T06:48:15.667Z,4.80
2019-02-08T06:50:44.896Z,4.95
2019-02-08T06:53:14.323Z,5.05
2019-02-08T06:55:43.704Z,6.33
2019-02-08T06:58:29.809Z,5.67
2019-02-08T07:01:18.078Z,4.87
2019-02-08T07:04:13.488Z,5.42
2019-02-08T07:07:10.752Z,5.70
2019-02-08T07:09:51.596Z,5.15
2019-02-08T07:12:58.079Z,5.53
2019-02-08T07:15:45.064Z,6.10
2019-02-08T07:18:32.538Z,5.25
2019-02-08T07:21:23.942Z,6.20
2019-02-08T07:24:11.590Z,5.17
2019-02-08T07:27:06.339Z,4.60
2019-02-08T07:30:01.481Z,4.62
2019-02-08T07:32:43.664Z,4.35
2019-02-08T07:35:33.220Z,4.30
2019-02-08T07:38:20.562Z,3.90
2019-02-08T07:41:06.420Z,4.53
2019-02-08T07:43:57.470Z,3.75
2019-02-08T07:46:35.574Z,3.72
2019-02-08T07:49:20.227Z,4.00
2019-02-08T07:52:00.162Z,3.30
2019-02-08T07:54:59.184Z,3.45
2019-02-08T07:57:46.294Z,3.30
2019-02-08T08:00:39.367Z,4.03
2019-02-08T08:03:27.736Z,3.83
2019-02-08T08:06:16.584Z,3.33
2019-02-08T08:09:03.451Z,3.72
2019-02-08T08:11:41.370Z,3.00
2019-02-08T08:14:45.891Z,3.02
2019-02-08T08:17:40.599Z,3.42
2019-02-08T08:20:36.603Z,3.95
2019-02-08T08:23:42.891Z,3.52
2019-02-08T08:26:34.948Z,2.70
2019-02-08T08:29:14.738Z,3.55
2019-02-08T08:31:58.424Z,3.55
2019-02-08T08:34:42.596Z,3.40
2019-02-08T08:37:42.479Z,2.92
2019-02-08T08:40:25.735Z,2.77
2019-02-08T08:43:50.381Z,3.25
2019-02-08T08:46:50.077Z,3.12
2019-02-08T08:49:56.893Z,3.12
2019-02-08T08:53:14.077Z,2.90
2019-02-08T08:56:25.191Z,2.55
2019-02-08T08:59:50.772Z,2.45
2019-02-08T09:03:10.086Z,2.87
2019-02-08T09:06:10.288Z,2.40
2019-02-08T09:09:05.403Z,2.58
2019-02-08T09:12:08.235Z,2.27
2019-02-08T09:15:20.730Z,2.45
2019-02-08T09:18:35.781Z,3.65
2019-02-08T09:21:35.363Z,2.67
2019-02-08T09:24:41.946Z,2.52
2019-02-08T09:27:29.411Z,2.80
2019-02-08T09:30:29.079Z,2.90
2019-02-08T09:33:38.341Z,2.75
2019-02-08T09:36:47.488Z,3.08
2019-02-08T09:39:56.789Z,3.08
2019-02-08T09:42:51.526Z,2.60
2019-02-08T09:46:09.210Z,3.00
2019-02-08T09:49:36.909Z,2.50
2019-02-08T09:52:48.755Z,2.70
2019-02-08T09:56:02.686Z,2.22
2019-02-08T09:58:52.018Z,2.05
2019-02-08T10:02:05.653Z,1.95
2019-02-08T10:04:55.300Z,1.90
2019-02-08T10:08:04.038Z,2.30
2019-02-08T10:11:23.384Z,1.87
2019-02-08T10:14:44.034Z,1.40
2019-02-08T10:17:41.654Z,1.75
2019-02-08T10:20:55.102Z,1.70
2019-02-08T10:24:13.388Z,2.62
2019-02-08T10:27:35.283Z,1.90
2019-02-08T10:30:49.474Z,2.15
2019-02-08T10:33:57.114Z,2.47
2019-02-08T10:37:15.558Z,1.70
2019-02-08T10:40:14.770Z,2.22
2019-02-08T10:43:39.762Z,1.60
2019-02-08T10:46:55.070Z,2.33
2019-02-08T10:50:08.079Z,1.80
2019-02-08T10:53:11.845Z,2.20
2019-02-08T10:56:34.427Z,2.05
2019-02-08T10:59:40.377Z,1.92
2019-02-08T11:02:55.998Z,1.62
2019-02-08T11:06:15.154Z,1.45
2019-02-08T11:09:41.027Z,1.20
2019-02-08T11:12:45.935Z,1.40
2019-02-08T11:15:53.526Z,1.30
2019-02-08T11:19:11.129Z,1.30
2019-02-08T11:21:40.442Z,1.20
2019-02-08T11:24:09.702Z,0.90
2019-02-08T11:26:38.842Z,1.00
2019-02-08T11:29:08.154Z,1.15
2019-02-08T11:31:37.484Z,1.20
2019-02-08T11:34:07.534Z,1.20
2019-02-08T11:36:36.787Z,2.70
2019-02-08T11:39:13.886Z,1.25
2019-02-08T11:41:43.444Z,1.10
2019-02-08T11:44:12.842Z,1.35
2019-02-08T11:46:42.559Z,1.22
2019-02-08T11:49:15.236Z,0.90
2019-02-08T11:51:45.318Z,1.12
2019-02-08T11:54:14.719Z,1.50
2019-02-08T11:56:43.942Z,1.45
2019-02-08T11:59:13.183Z,1.75
2019-02-08T12:01:50.464Z,2.40
2019-02-08T12:04:20.347Z,1.90
2019-02-08T12:06:52.681Z,1.77
2019-02-08T12:09:21.969Z,2.05
2019-02-08T12:11:51.273Z,1.50
2019-02-08T12:14:20.420Z,1.65
2019-02-08T12:16:49.673Z,2.25
2019-02-08T12:19:18.888Z,1.17
2019-02-08T12:21:48.165Z,1.40
2019-02-08T12:24:17.756Z,1.50
2019-02-08T12:26:46.929Z,1.67
2019-02-08T12:29:16.359Z,1.40
2019-02-08T12:31:45.698Z,1.60
2019-02-08T12:34:14.877Z,1.45
2019-02-08T12:36:44.024Z,1.85
2019-02-08T12:39:13.294Z,1.50
2019-02-08T12:41:42.693Z,1.20
2019-02-08T12:44:12.411Z,1.25
2019-02-08T12:46:41.686Z,1.75
2019-02-08T12:49:10.969Z,1.40
2019-02-08T12:51:40.213Z,1.20
2019-02-08T12:54:09.555Z,1.22
2019-02-08T12:56:45.466Z,1.70
2019-02-08T12:59:09.714Z,1.67
2019-02-08T13:01:38.835Z,1.70
2019-02-08T13:04:08.183Z,1.32
2019-02-08T13:06:37.756Z,1.60
2019-02-08T13:09:11.228Z,1.40
2019-02-08T13:11:40.528Z,1.12
2019-02-08T13:14:09.783Z,1.77
2019-02-08T13:16:38.946Z,1.30
2019-02-08T13:19:08.241Z,1.50
2019-02-08T13:21:39.155Z,1.67
2019-02-08T13:24:08.475Z,1.67
2019-02-08T13:26:37.737Z,1.45
2019-02-08T13:29:07.168Z,2.00
2019-02-08T13:31:36.479Z,1.60
2019-02-08T13:34:05.871Z,1.80
2019-02-08T13:36:44.924Z,1.77
2019-02-08T13:39:14.126Z,1.60
2019-02-08T13:41:43.395Z,1.75
2019-02-08T13:44:12.556Z,1.37
2019-02-08T13:46:41.770Z,1.87
2019-02-08T13:49:10.999Z,1.17
2019-02-08T13:51:40.291Z,1.72
2019-02-08T13:54:10.065Z,1.57
2019-02-08T13:56:39.661Z,2.40
2019-02-08T13:59:09.261Z,1.90
2019-02-08T14:01:38.452Z,1.42
2019-02-08T14:04:07.642Z,1.65
2019-02-08T14:06:36.836Z,1.65
2019-02-08T14:09:09.271Z,2.45
2019-02-08T14:11:38.575Z,1.70
2019-02-08T14:14:07.907Z,2.00
2019-02-08T14:16:37.259Z,1.70
2019-02-08T14:19:06.513Z,1.80
2019-02-08T14:21:35.700Z,2.05
2019-02-08T14:24:05.116Z,2.08
2019-02-08T14:26:34.392Z,2.27
2019-02-08T14:29:03.613Z,1.90
2019-02-08T14:31:33.654Z,2.83
2019-02-08T14:34:02.924Z,2.10
2019-02-08T14:36:32.083Z,2.60
2019-02-08T14:39:01.292Z,2.65
2019-02-08T14:41:30.556Z,2.37
2019-02-08T14:43:59.794Z,2.10
2019-02-08T14:46:29.014Z,2.40
2019-02-08T14:48:58.289Z,2.35
2019-02-08T14:51:27.527Z,2.50
2019-02-08T14:53:56.832Z,1.95
2019-02-08T14:56:26.075Z,2.40
2019-02-08T14:58:55.670Z,2.15
2019-02-08T15:01:26.000Z,1.82
2019-02-08T15:03:55.306Z,2.50
2019-02-08T15:06:24.453Z,2.60
2019-02-08T15:08:53.643Z,2.30
2019-02-08T15:11:23.024Z,2.10
2019-02-08T15:13:52.232Z,3.00
2019-02-08T15:16:22.107Z,1.92
2019-02-08T15:18:51.465Z,2.10
2019-02-08T15:21:20.791Z,2.92
2019-02-08T15:23:50.121Z,1.45
2019-02-08T15:26:19.437Z,2.10
2019-02-08T15:28:48.795Z,2.00
2019-02-08T15:31:19.707Z,2.00
2019-02-08T15:33:49.016Z,2.20
2019-02-08T15:36:18.121Z,2.20
2019-02-08T15:38:48.763Z,2.35
2019-02-08T15:41:17.943Z,2.12
2019-02-08T15:43:47.449Z,2.87
2019-02-08T15:46:16.767Z,2.10
2019-02-08T15:48:46.002Z,2.30
2019-02-08T15:51:15.336Z,2.33
2019-02-08T15:53:46.353Z,1.75
2019-02-08T15:56:17.689Z,1.55
2019-02-08T15:58:47.285Z,2.20
2019-02-08T16:01:16.717Z,2.00
2019-02-08T16:03:46.031Z,2.27
2019-02-08T16:06:15.185Z,3.00
2019-02-08T16:08:44.494Z,1.60
2019-02-08T16:11:13.883Z,1.98
2019-02-08T16:13:43.079Z,2.20
2019-02-08T16:16:13.161Z,2.70
2019-02-08T16:18:42.522Z,2.37
2019-02-08T16:21:11.746Z,2.35
2019-02-08T16:23:40.991Z,2.55
2019-02-08T16:26:10.107Z,1.92
2019-02-08T16:28:39.273Z,2.00
2019-02-08T16:31:08.823Z,2.98
2019-02-08T16:33:38.114Z,2.47
2019-02-08T16:36:07.677Z,2.77
2019-02-08T16:38:36.970Z,2.35
2019-02-08T16:41:06.281Z,2.45
2019-02-08T16:43:35.467Z,2.72
2019-02-08T16:46:05.027Z,2.30
2019-02-08T16:48:34.331Z,3.22
2019-02-08T16:51:03.607Z,3.30
2019-02-08T16:53:32.807Z,2.65
2019-02-08T16:56:02.175Z,2.67
2019-02-08T16:58:31.605Z,4.15
2019-02-08T17:01:00.867Z,2.52
2019-02-08T17:03:30.048Z,3.55
2019-02-08T17:05:59.227Z,3.30
2019-02-08T17:08:28.411Z,2.77
2019-02-08T17:10:57.785Z,2.87
2019-02-08T17:13:27.039Z,2.80
2019-02-08T17:15:56.253Z,3.20
2019-02-08T17:18:25.397Z,2.85
2019-02-08T17:20:54.723Z,3.10
2019-02-08T17:23:25.093Z,3.45
2019-02-08T17:25:54.397Z,2.87
2019-02-08T17:28:23.612Z,3.02
2019-02-08T17:30:52.818Z,2.83
2019-02-08T17:33:22.124Z,3.02
2019-02-08T17:35:51.387Z,3.62
2019-02-08T17:38:20.623Z,2.80
2019-02-08T17:40:50.417Z,2.35
2019-02-08T17:43:19.602Z,1.90
2019-02-08T17:45:49.701Z,2.90
2019-02-08T17:48:19.698Z,2.20
2019-02-08T17:50:48.931Z,2.22
2019-02-08T17:53:18.313Z,2.20
2019-02-08T17:55:48.405Z,2.45
2019-02-08T17:58:18.108Z,2.20
2019-02-08T18:00:55.047Z,2.10
2019-02-08T18:03:24.268Z,1.95
2019-02-08T18:05:54.846Z,3.08
2019-02-08T18:08:24.055Z,1.95
2019-02-08T18:10:57.389Z,2.20
2019-02-08T18:13:26.847Z,1.98
2019-02-08T18:15:56.270Z,2.62
2019-02-08T18:18:26.621Z,3.25
2019-02-08T18:21:06.151Z,2.80
2019-02-08T18:23:38.671Z,3.50
2019-02-08T18:26:07.851Z,3.37
2019-02-08T18:28:37.130Z,2.80
2019-02-08T18:31:06.581Z,2.45
2019-02-08T18:33:36.769Z,2.30
2019-02-08T18:36:06.313Z,2.40
2019-02-08T18:38:36.502Z,1.87
2019-02-08T18:41:07.444Z,2.05
2019-02-08T18:43:37.137Z,2.40
2019-02-08T18:46:06.317Z,2.75
2019-02-08T18:48:35.671Z,2.05
2019-02-08T18:51:05.284Z,2.33
2019-02-08T18:53:34.527Z,2.52
2019-02-08T18:56:03.826Z,2.37
2019-02-08T18:58:33.743Z,2.20
2019-02-08T19:01:03.729Z,2.85
2019-02-08T19:03:38.358Z,2.30
2019-02-08T19:06:07.714Z,1.72
2019-02-08T19:08:40.259Z,2.50
2019-02-08T19:11:11.718Z,2.45
2019-02-08T19:13:42.113Z,1.92
2019-02-08T19:16:14.275Z,2.62
2019-02-08T19:18:43.506Z,2.08
2019-02-08T19:21:15.919Z,2.58
2019-02-08T19:23:45.695Z,2.20
2019-02-08T19:26:15.053Z,2.05
2019-02-08T19:28:44.217Z,2.27
2019-02-08T19:31:13.535Z,2.77
2019-02-08T19:33:42.976Z,2.50
2019-02-08T19:36:15.322Z,2.90
2019-02-08T19:38:44.525Z,2.50
2019-02-08T19:41:13.963Z,2.55
2019-02-08T19:43:43.258Z,2.30
2019-02-08T19:46:12.601Z,2.58
2019-02-08T19:48:41.929Z,2.20
2019-02-08T19:51:11.232Z,3.12
2019-02-08T19:53:40.498Z,2.52
2019-02-08T19:56:09.819Z,3.17
2019-02-08T19:58:41.802Z,3.22
2019-02-08T20:01:14.371Z,2.30
2019-02-08T20:03:43.606Z,2.40
2019-02-08T20:06:20.580Z,2.27
2019-02-08T20:08:49.827Z,3.20
2019-02-08T20:11:19.092Z,3.27
2019-02-08T20:13:49.230Z,2.40
2019-02-08T20:16:20.713Z,2.27
2019-02-08T20:18:50.026Z,2.40
2019-02-08T20:21:19.460Z,2.30
2019-02-08T20:23:49.290Z,2.60
2019-02-08T20:26:18.660Z,2.02
2019-02-08T20:28:48.030Z,2.00
2019-02-08T20:31:21.318Z,2.30
2019-02-08T20:33:50.590Z,2.33
2019-02-08T20:36:20.106Z,2.30
2019-02-08T20:38:49.605Z,3.22
2019-02-08T20:41:23.716Z,2.22
2019-02-08T20:43:52.894Z,2.10
2019-02-08T20:46:22.446Z,2.50
2019-02-08T20:48:51.867Z,2.87
2019-02-08T20:51:21.151Z,2.40
2019-02-08T20:53:50.330Z,2.25
2019-02-08T20:56:20.391Z,2.35
2019-02-08T20:58:50.572Z,2.02
2019-02-08T21:01:28.839Z,2.90
2019-02-08T21:04:00.383Z,2.77
2019-02-08T21:06:29.681Z,2.40
2019-02-08T21:09:01.724Z,3.37
2019-02-08T21:11:31.090Z,2.60
2019-02-08T21:14:00.314Z,2.60
2019-02-08T21:16:29.511Z,2.47
2019-02-08T21:19:00.319Z,2.00
2019-02-08T21:21:29.510Z,1.85
2019-02-08T21:23:58.666Z,1.98
2019-02-08T21:26:28.315Z,1.95
2019-02-08T21:28:58.354Z,2.12
2019-02-08T21:31:27.677Z,1.95
2019-02-08T21:33:57.475Z,2.00
2019-02-08T21:36:26.753Z,2.33
2019-02-08T21:38:57.535Z,2.27
2019-02-08T21:41:27.367Z,1.87
2019-02-08T21:43:56.828Z,2.20
2019-02-08T21:46:39.409Z,2.08
2019-02-08T21:49:08.700Z,1.87
2019-02-08T21:51:38.018Z,1.80
2019-02-08T21:54:07.314Z,1.80
2019-02-08T21:56:36.753Z,2.10
2019-02-08T21:59:06.607Z,1.98
2019-02-08T22:01:36.162Z,2.02
2019-02-08T22:04:05.697Z,2.05
2019-02-08T22:06:34.875Z,2.02
2019-02-08T22:09:05.601Z,2.47
2019-02-08T22:11:34.921Z,2.52
2019-02-08T22:14:04.470Z,2.60
2019-02-08T22:16:33.610Z,1.82
2019-02-08T22:19:02.904Z,2.20
2019-02-08T22:21:32.679Z,2.40
2019-02-08T22:24:01.970Z,2.90
2019-02-08T22:26:31.204Z,2.47
2019-02-08T22:29:00.655Z,2.08
2019-02-08T22:31:30.393Z,2.10
2019-02-08T22:33:59.719Z,2.00
2019-02-08T22:36:29.346Z,1.82
2019-02-08T22:38:58.641Z,1.80
2019-02-08T22:41:27.900Z,1.98
2019-02-08T22:43:57.161Z,2.35
2019-02-08T22:46:26.576Z,2.10
2019-02-08T22:48:55.973Z,2.10
2019-02-08T22:51:25.185Z,2.20
2019-02-08T22:53:54.436Z,2.15
2019-02-08T22:56:23.809Z,2.02
2019-02-08T22:58:53.393Z,2.10
2019-02-08T23:01:32.943Z,2.72
2019-02-08T23:04:03.544Z,2.40
2019-02-08T23:06:32.702Z,2.20
2019-02-08T23:09:02.472Z,2.58
2019-02-08T23:11:31.656Z,2.30
2019-02-08T23:14:00.833Z,2.70
2019-02-08T23:16:30.081Z,2.75
2019-02-08T23:18:59.406Z,2.35
2019-02-08T23:21:28.740Z,2.45
2019-02-08T23:23:58.112Z,2.20
2019-02-08T23:26:27.394Z,2.95
2019-02-08T23:28:56.564Z,3.00
2019-02-08T23:31:25.912Z,2.55
2019-02-08T23:33:55.118Z,3.17
2019-02-08T23:36:24.400Z,3.33
2019-02-08T23:38:53.639Z,2.83
2019-02-08T23:41:22.818Z,3.00
2019-02-08T23:43:52.059Z,2.35
2019-02-08T23:46:21.310Z,2.40
2019-02-08T23:48:53.447Z,2.87
2019-02-08T23:51:22.742Z,2.83
2019-02-08T23:53:52.220Z,2.10
2019-02-08T23:56:21.448Z,2.77
2019-02-08T23:58:50.584Z,2.98
